Time;durP1;ratioP1;P1;durP2;ratioP2;P2;SDS_P1;SDS_P2;PMS_P1;PMS_P2;Temp;Humidity;BMP_temperature;BMP_pressure;BME280_temperature;BME280_humidity;BME280_pressure;Samples;Min_cycle;Max_cycle;Signal;HPM_P1;HPM_P2
2022/06/04 00:00:28;;;;;;;1.70;1.60;;;;;;;15.91;54.42;101744.13;6213984;23;20004;-84
2022/06/04 00:02:54;;;;;;;2.38;1.50;;;;;;;15.88;54.30;101739.78;6214160;23;20007;-84
2022/06/04 00:05:23;;;;;;;2.28;1.63;;;;;;;15.83;54.69;101746.88;6214567;23;20005;-85
2022/06/04 00:07:50;;;;;;;2.13;1.90;;;;;;;15.79;54.71;101739.97;6169389;23;1039069;-84
2022/06/04 00:15:51;;;;;;;2.00;1.80;;;;;;;15.74;54.63;101731.38;6214926;23;20093;-84
2022/06/04 00:18:19;;;;;;;1.70;1.60;;;;;;;15.72;54.41;101728.78;6216687;23;20001;-84
2022/06/04 00:20:45;;;;;;;1.73;1.63;;;;;;;15.69;54.51;101722.75;6216434;23;20004;-85
2022/06/04 00:23:11;;;;;;;2.03;1.85;;;;;;;15.65;54.84;101742.91;6215675;23;20005;-85
2022/06/04 00:25:38;;;;;;;2.20;2.00;;;;;;;15.65;55.08;101739.44;6216407;23;20080;-84
2022/06/04 00:28:06;;;;;;;2.05;1.90;;;;;;;15.57;54.57;101739.63;6216496;23;20377;-84
2022/06/04 00:30:32;;;;;;;3.03;2.03;;;;;;;15.52;54.93;101744.94;6215363;23;20004;-85
2022/06/04 00:32:57;;;;;;;2.40;1.80;;;;;;;15.49;54.37;101742.38;6215866;23;20020;-85
2022/06/04 00:35:24;;;;;;;2.87;2.30;;;;;;;15.46;55.41;101754.69;6216452;23;20161;-85
2022/06/04 00:37:50;;;;;;;3.08;2.25;;;;;;;15.42;55.33;101751.28;6215100;23;20039;-85
2022/06/04 00:40:47;;;;;;;3.33;2.17;;;;;;;15.36;55.64;101756.63;6216113;23;20001;-84
2022/06/04 00:43:13;;;;;;;2.40;1.85;;;;;;;15.35;55.15;101755.78;6215651;23;20004;-85
2022/06/04 00:46:16;;;;;;;2.60;2.03;;;;;;;15.34;54.96;101753.16;6215708;23;20319;-85
2022/06/04 00:48:42;;;;;;;2.20;2.00;;;;;;;15.30;55.38;101736.69;6165937;23;20123;-84
2022/06/04 00:51:07;;;;;;;1.70;1.60;;;;;;;15.29;55.51;101738.44;6215541;23;20028;-85
2022/06/04 00:53:35;;;;;;;2.03;1.90;;;;;;;15.26;54.73;101737.63;6216458;23;20059;-85
2022/06/04 00:56:36;;;;;;;1.90;1.80;;;;;;;15.24;54.49;101750.75;6216143;23;20009;-85
2022/06/04 00:59:31;;;;;;;2.90;1.98;;;;;;;15.20;55.18;101767.38;6208286;23;20005;-84
2022/06/04 01:02:19;;;;;;;3.77;2.43;;;;;;;15.14;55.19;101770.13;6204765;23;20099;-84
2022/06/04 01:05:15;;;;;;;3.45;2.20;;;;;;;15.10;54.79;101781.53;6215061;23;20008;-85
2022/06/04 01:07:53;;;;;;;2.00;1.90;;;;;;;15.11;55.40;101780.63;6215339;23;20040;-84
2022/06/04 01:10:24;;;;;;;2.03;1.75;;;;;;;15.12;55.00;101798.06;6216430;23;20333;-85
2022/06/04 01:12:59;;;;;;;2.00;1.80;;;;;;;15.09;55.37;101805.94;6214374;23;20044;-84
2022/06/04 01:15:39;;;;;;;2.90;2.38;;;;;;;15.03;55.07;101812.16;6215546;23;20012;-84
2022/06/04 01:18:37;;;;;;;2.42;2.20;;;;;;;14.97;55.83;101807.03;6215277;23;20385;-85
2022/06/04 01:21:06;;;;;;;3.83;2.13;;;;;;;14.97;55.11;101802.66;6216040;23;20354;-85
2022/06/04 01:23:37;;;;;;;2.05;1.90;;;;;;;14.95;55.66;101801.84;6215635;23;20415;-84
2022/06/04 01:26:28;;;;;;;2.30;2.10;;;;;;;14.93;55.62;101800.13;6214928;23;20005;-85
2022/06/04 01:28:58;;;;;;;3.83;2.10;;;;;;;14.90;55.67;101800.22;6215275;23;20040;-84
2022/06/04 01:31:48;;;;;;;1.88;1.77;;;;;;;14.87;55.68;101802.88;6215925;23;20039;-85
2022/06/04 01:34:29;;;;;;;2.92;2.20;;;;;;;14.81;55.60;101804.69;6215907;23;20495;-85
2022/06/04 01:37:02;;;;;;;4.90;2.20;;;;;;;14.76;55.89;101803.94;6215695;23;20016;-84
2022/06/04 01:41:03;;;;;;;3.67;2.60;;;;;;;14.62;55.70;101805.88;6214418;23;20422;-84
2022/06/04 01:42:23;;;;;;;4.80;2.45;;;;;;;14.64;56.14;101809.34;6215747;23;20012;-84
2022/06/04 01:44:50;;;;;;;2.70;2.28;;;;;;;14.65;55.60;101808.44;6215588;23;20028;-85
2022/06/04 01:47:17;;;;;;;2.28;1.90;;;;;;;14.63;56.22;101810.22;6214760;23;20031;-85
2022/06/04 01:49:48;;;;;;;2.40;2.20;;;;;;;14.58;56.23;101817.28;6215154;23;20402;-85
2022/06/04 01:52:19;;;;;;;3.67;2.60;;;;;;;14.49;56.03;101820.91;6215313;23;20016;-84
2022/06/04 01:54:51;;;;;;;3.05;2.38;;;;;;;14.46;56.49;101827.03;6214608;23;20004;-84
2022/06/04 01:57:22;;;;;;;4.22;2.50;;;;;;;14.48;56.85;101825.25;6215720;23;20008;-85
2022/06/04 01:59:52;;;;;;;4.00;2.60;;;;;;;14.44;56.41;101825.31;6214649;23;20001;-84
2022/06/04 02:02:24;;;;;;;2.30;2.10;;;;;;;14.45;56.33;101827.06;6214938;23;20004;-85
2022/06/04 02:04:59;;;;;;;2.47;2.00;;;;;;;14.43;57.05;101834.03;6215214;23;20009;-85
2022/06/04 02:07:32;;;;;;;3.88;2.25;;;;;;;14.41;57.10;101836.69;6214292;23;20040;-85
2022/06/04 02:10:12;;;;;;;4.03;2.60;;;;;;;14.36;56.87;101823.69;6215134;23;20005;-84
2022/06/04 02:12:43;;;;;;;3.88;2.63;;;;;;;14.27;56.96;101822.97;6215211;23;20008;-84
2022/06/04 02:15:12;;;;;;;3.50;2.55;;;;;;;14.23;57.75;101814.31;6214446;23;20008;-84
2022/06/04 02:17:40;;;;;;;4.10;2.60;;;;;;;14.24;57.35;101816.06;6215076;23;20000;-84
2022/06/04 02:20:07;;;;;;;3.47;2.10;;;;;;;14.25;57.08;101816.91;6215211;23;20036;-84
2022/06/04 02:22:33;;;;;;;4.40;2.47;;;;;;;14.21;56.86;101819.59;6214135;23;20005;-85
2022/06/04 02:25:04;;;;;;;5.13;2.97;;;;;;;14.16;57.57;101836.19;6214409;23;20008;-85
2022/06/04 02:27:30;;;;;;;2.67;2.30;;;;;;;14.12;57.96;101834.50;6214541;23;20012;-84
2022/06/04 02:29:55;;;;;;;3.83;2.33;;;;;;;14.08;57.92;101831.09;6213788;23;20004;-84
2022/06/04 02:32:42;;;;;;;3.33;2.23;;;;;;;14.09;58.70;101830.19;6215237;23;20054;-85
2022/06/04 02:35:28;;;;;;;4.80;2.70;;;;;;;14.06;58.14;101832.84;6214020;23;20016;-85
2022/06/04 02:38:12;;;;;;;3.55;2.80;;;;;;;14.00;58.62;101828.56;6214700;23;20525;-85
2022/06/04 02:41:03;;;;;;;4.68;2.63;;;;;;;13.97;58.18;101822.53;6215048;23;20075;-84
2022/06/04 02:43:59;;;;;;;3.13;2.40;;;;;;;13.88;59.19;101818.31;6200599;23;20382;-84
2022/06/04 02:46:34;;;;;;;3.80;2.75;;;;;;;13.86;59.31;101807.91;6214624;23;20067;-84
2022/06/04 02:49:10;;;;;;;4.63;2.97;;;;;;;13.81;59.65;101809.69;6214742;23;20000;-85
2022/06/04 02:51:57;;;;;;;6.50;3.45;;;;;;;13.68;59.95;101795.09;6215023;23;20032;-85
2022/06/04 02:54:39;;;;;;;4.35;2.78;;;;;;;13.71;59.30;101787.22;6215306;23;20012;-84
2022/06/04 02:57:06;;;;;;;3.80;2.45;;;;;;;13.72;59.12;101775.91;6213849;23;20341;-85
2022/06/04 02:59:34;;;;;;;3.63;2.83;;;;;;;13.70;59.50;101773.31;6215348;23;20076;-84
2022/06/04 03:02:01;;;;;;;2.88;2.50;;;;;;;13.70;60.15;101768.09;6215059;23;20081;-84
2022/06/04 03:04:27;;;;;;;3.60;2.40;;;;;;;13.70;59.59;101762.91;6216202;23;20354;-84
2022/06/04 03:06:52;;;;;;;3.83;2.50;;;;;;;13.69;60.14;101763.78;6216937;23;20001;-85
2022/06/04 03:09:20;;;;;;;5.27;2.80;;;;;;;13.68;60.69;101769.88;6217479;23;20001;-84
2022/06/04 03:11:48;;;;;;;3.88;2.60;;;;;;;13.68;60.39;101759.44;6215999;23;20009;-84
2022/06/04 03:14:16;;;;;;;3.63;2.60;;;;;;;13.68;60.35;101763.81;6217271;23;20361;-85
2022/06/04 03:16:45;;;;;;;3.17;2.35;;;;;;;13.67;59.78;101762.94;6216383;23;20008;-84
2022/06/04 03:19:10;;;;;;;4.95;2.80;;;;;;;13.64;60.94;101769.94;6216067;23;20007;-84
2022/06/04 03:21:37;;;;;;;5.10;3.10;;;;;;;13.57;61.47;101763.94;6217167;23;20294;-85
2022/06/04 03:24:03;;;;;;;;;;;;;;;13.54;61.13;101763.97;6217572;23;20369;-85
2022/06/04 03:26:29;;;;;;;5.30;3.45;;;;;;;13.50;61.77;101764.91;6215810;23;19942;-84
2022/06/04 03:28:55;;;;;;;8.70;3.97;;;;;;;13.38;61.56;101753.72;6216734;23;20028;-85
2022/06/04 03:31:20;;;;;;;8.57;4.00;;;;;;;13.38;62.25;101752.84;6216691;23;20001;-83
2022/06/04 03:33:45;;;;;;;5.97;3.43;;;;;;;13.35;62.71;101756.34;6216107;23;20326;-84
2022/06/04 03:36:11;;;;;;;7.07;3.50;;;;;;;13.35;62.12;101751.13;6216315;23;20011;-85
2022/06/04 03:38:36;;;;;;;8.37;4.07;;;;;;;13.25;62.71;101763.41;6215372;23;20035;-84
2022/06/04 03:41:11;;;;;;;6.27;3.50;;;;;;;13.29;62.68;101772.94;6216523;23;20011;-84
2022/06/04 03:43:36;;;;;;;6.07;3.50;;;;;;;13.26;63.40;101780.78;6216779;23;20058;-84
2022/06/04 03:46:01;;;;;;;7.67;3.93;;;;;;;13.16;64.28;101781.75;6215872;23;20009;-85
2022/06/04 03:48:27;;;;;;;6.50;4.10;;;;;;;13.15;63.54;101773.97;6216815;23;20058;-84
2022/06/04 03:50:52;;;;;;;8.70;4.03;;;;;;;13.09;64.67;101783.56;6216165;23;20031;-85
2022/06/04 03:53:17;;;;;;;7.37;4.27;;;;;;;13.08;63.70;101779.22;6215782;23;20007;-84
2022/06/04 03:55:42;;;;;;;5.27;3.47;;;;;;;13.10;63.28;101777.47;6216094;23;20016;-84
2022/06/04 03:58:09;;;;;;;6.07;3.50;;;;;;;13.16;63.75;101786.13;6216860;23;20377;-85
2022/06/04 04:00:39;;;;;;;6.43;3.60;;;;;;;13.14;64.77;101780.91;6215771;23;20374;-86
2022/06/04 04:03:15;;;;;;;7.32;4.32;;;;;;;13.11;64.25;101776.59;6216880;23;20028;-85
2022/06/04 04:05:46;;;;;;;7.75;4.45;;;;;;;13.05;64.79;101792.31;6216500;23;20004;-84
2022/06/04 04:08:12;;;;;;;8.05;4.28;;;;;;;13.02;64.76;101794.94;6215399;23;20320;-85
2022/06/04 04:10:39;;;;;;;5.77;3.57;;;;;;;13.08;64.79;101800.09;6216550;23;20011;-84
2022/06/04 04:13:05;;;;;;;5.88;3.60;;;;;;;13.09;64.61;101807.03;6216587;23;20005;-85
2022/06/04 04:15:30;;;;;;;7.37;4.20;;;;;;;13.06;64.65;101796.63;6214967;23;20013;-84
2022/06/04 04:17:56;;;;;;;5.33;3.83;;;;;;;13.06;65.06;101793.16;6216346;23;20012;-85
2022/06/04 04:20:24;;;;;;;6.50;4.00;;;;;;;13.05;65.03;101799.25;6216393;23;20396;-84
2022/06/04 04:22:50;;;;;;;5.90;3.92;;;;;;;13.03;65.34;101808.81;6215349;23;19996;-84
2022/06/04 04:25:18;;;;;;;6.07;4.03;;;;;;;13.00;64.81;101801.91;6216286;23;20510;-85
2022/06/04 04:27:43;;;;;;;6.63;3.63;;;;;;;13.05;65.80;101804.47;6215406;23;20012;-85
2022/06/04 04:30:13;;;;;;;5.37;3.60;;;;;;;13.05;65.28;101805.34;6216168;23;20001;-85
2022/06/04 04:32:38;;;;;;;7.60;4.47;;;;;;;13.01;65.96;101803.66;6216396;23;20004;-84
2022/06/04 04:35:06;;;;;;;7.07;4.43;;;;;;;12.94;66.37;101800.22;6215431;23;20326;-85
2022/06/04 04:37:32;;;;;;;7.03;4.07;;;;;;;13.00;65.84;101809.72;6216535;23;20080;-85
2022/06/04 04:39:57;;;;;;;8.83;4.33;;;;;;;12.95;65.88;101807.19;6215701;23;20032;-84
2022/06/04 04:42:24;;;;;;;5.47;3.80;;;;;;;13.00;66.35;101816.69;6215355;23;20015;-84
2022/06/04 04:44:49;;;;;;;5.57;3.85;;;;;;;12.95;67.09;101822.81;6216225;23;20064;-85
2022/06/04 04:47:18;;;;;;;5.57;3.40;;;;;;;12.98;66.61;101829.72;6216561;23;20401;-84
2022/06/04 04:49:43;;;;;;;7.90;4.53;;;;;;;12.96;66.85;101834.97;6215172;23;20091;-85
2022/06/04 04:52:09;;;;;;;9.00;4.60;;;;;;;12.94;67.50;101834.09;6216150;23;20035;-84
2022/06/04 04:54:34;;;;;;;9.17;4.07;;;;;;;12.98;66.75;101835.81;6216299;23;20005;-84
2022/06/04 04:57:05;;;;;;;7.27;4.20;;;;;;;13.01;66.67;101845.34;6214973;23;20012;-84
2022/06/04 04:59:31;;;;;;;7.47;4.30;;;;;;;12.97;66.41;101841.03;6216213;23;20051;-84
2022/06/04 05:01:56;;;;;;;8.43;4.80;;;;;;;13.00;66.59;101846.22;6215926;23;20008;-85
2022/06/04 05:04:22;;;;;;;8.23;4.73;;;;;;;12.98;67.40;101842.75;6215315;23;20008;-84
2022/06/04 05:06:47;;;;;;;6.93;4.40;;;;;;;12.99;67.51;101847.09;6215482;23;20050;-84
2022/06/04 05:09:12;;;;;;;7.17;4.10;;;;;;;13.00;67.83;101840.16;6215432;23;20012;-84
2022/06/04 05:11:38;;;;;;;6.80;3.97;;;;;;;13.03;67.60;101842.72;6213996;23;20066;-83
2022/06/04 05:14:04;;;;;;;6.83;4.23;;;;;;;13.06;68.10;101843.53;6215962;23;20005;-84
2022/06/04 05:16:33;;;;;;;5.60;3.80;;;;;;;13.07;66.94;101823.56;6216127;23;20009;-84
2022/06/04 05:19:01;;;;;;;7.10;4.22;;;;;;;13.12;67.21;101832.19;6214909;23;20004;-84
2022/06/04 05:21:41;;;;;;;9.10;4.50;;;;;;;13.11;68.23;101841.75;6216161;23;20063;-84
2022/06/04 05:24:09;;;;;;;7.35;4.10;;;;;;;13.09;68.22;101850.47;6215178;23;20005;-84
2022/06/04 05:26:34;;;;;;;10.23;4.88;;;;;;;13.08;68.34;101853.97;6215937;23;20032;-85
2022/06/04 05:29:00;;;;;;;11.23;5.17;;;;;;;13.05;68.63;101857.47;6215392;23;20078;-85
2022/06/04 05:31:25;;;;;;;10.00;4.93;;;;;;;13.09;67.71;101851.34;6214871;23;20004;-84
2022/06/04 05:33:50;;;;;;;9.33;5.23;;;;;;;13.06;68.46;101853.09;6215603;23;20412;-84
2022/06/04 05:36:16;;;;;;;7.87;5.00;;;;;;;13.03;68.44;101843.59;6215230;23;20076;-85
2022/06/04 05:38:42;;;;;;;10.57;5.10;;;;;;;13.08;67.75;101844.38;6214005;23;20072;-85
2022/06/04 05:41:10;;;;;;;9.63;4.80;;;;;;;13.12;68.72;101848.72;6215465;23;20004;-85
2022/06/04 05:43:36;;;;;;;8.20;4.70;;;;;;;13.18;68.55;101858.22;6215141;23;20015;-85
2022/06/04 05:46:04;;;;;;;12.52;5.25;;;;;;;13.11;68.71;101857.41;6214841;23;20067;-84
2022/06/04 05:48:30;;;;;;;7.68;5.03;;;;;;;13.11;68.61;101867.81;6215784;23;20005;-84
2022/06/04 05:50:56;;;;;;;11.60;5.50;;;;;;;13.09;68.71;101869.56;6215429;23;20012;-83
2022/06/04 05:53:22;;;;;;;10.27;5.17;;;;;;;13.11;68.87;101873.03;6214969;23;20309;-84
2022/06/04 05:55:49;;;;;;;9.15;4.95;;;;;;;13.08;69.15;101883.47;6214554;23;20012;-80
2022/06/04 05:58:14;;;;;;;10.82;5.60;;;;;;;13.04;69.27;101880.91;6213754;23;20016;-83
2022/06/04 06:00:41;;;;;;;11.80;5.00;;;;;;;13.07;68.58;101873.94;6211477;23;20517;-83
2022/06/04 06:03:06;;;;;;;9.52;4.78;;;;;;;13.15;68.58;101879.09;6213398;23;20001;-83
2022/06/04 06:05:32;;;;;;;7.07;3.70;;;;;;;13.22;69.03;101875.56;6214918;23;20406;-82
2022/06/04 06:07:58;;;;;;;6.70;4.27;;;;;;;13.31;68.25;101874.56;6214078;23;20036;-82
2022/06/04 06:10:23;;;;;;;7.80;4.53;;;;;;;13.37;68.45;101876.25;6213855;23;20015;-83
2022/06/04 06:12:49;;;;;;;10.07;5.27;;;;;;;13.38;68.52;101872.78;6215651;23;20059;-83
2022/06/04 06:15:14;;;;;;;9.80;5.33;;;;;;;13.32;68.16;101878.06;6214657;23;20317;-83
2022/06/04 06:17:40;;;;;;;11.23;5.50;;;;;;;13.36;68.67;101882.34;6215115;23;20411;-82
2022/06/04 06:20:07;;;;;;;10.10;5.35;;;;;;;13.36;68.63;101882.34;6215535;23;20008;-83
2022/06/04 06:22:32;;;;;;;13.68;6.57;;;;;;;13.28;68.85;101883.31;6213480;23;20004;-83
2022/06/04 06:24:58;;;;;;;12.83;6.30;;;;;;;13.27;69.23;101875.50;6213535;23;20008;-83
2022/06/04 06:27:24;;;;;;;11.60;5.60;;;;;;;13.34;68.69;101882.38;6214506;23;20036;-82
2022/06/04 06:29:49;;;;;;;11.20;5.67;;;;;;;13.38;68.52;101881.47;6214213;23;20069;-82
2022/06/04 06:32:17;;;;;;;10.30;5.70;;;;;;;13.45;68.51;101882.31;6215489;23;20236;-83
2022/06/04 06:34:43;;;;;;;8.60;5.07;;;;;;;13.54;68.19;101886.53;6213385;23;20432;-82
2022/06/04 06:37:08;;;;;;;12.97;6.20;;;;;;;13.54;68.51;101887.41;6215032;23;20005;-82
2022/06/04 06:39:33;;;;;;;13.00;6.23;;;;;;;13.57;68.44;101900.41;6214909;23;20374;-82
2022/06/04 06:41:59;;;;;;;14.30;7.00;;;;;;;13.51;67.91;101894.41;6213835;23;20001;-82
2022/06/04 06:44:25;;;;;;;13.27;6.10;;;;;;;13.60;68.68;101891.72;6214748;23;20004;-82
2022/06/04 06:46:51;;;;;;;12.73;6.55;;;;;;;13.64;68.10;101903.81;6214678;23;20004;-81
2022/06/04 06:49:22;;;;;;;13.53;7.20;;;;;;;13.61;67.79;101898.66;6213000;23;20062;-82
2022/06/04 06:51:51;;;;;;;13.55;6.38;;;;;;;13.67;68.14;101897.72;6214994;23;20001;-83
2022/06/04 06:54:19;;;;;;;14.48;6.82;;;;;;;13.74;68.04;101907.19;6215240;23;20011;-82
2022/06/04 06:56:46;;;;;;;13.52;6.50;;;;;;;13.85;68.27;101904.44;6213422;23;20099;-82
2022/06/04 06:59:12;;;;;;;13.10;6.57;;;;;;;13.90;67.80;101902.66;6215018;23;20013;-82
2022/06/04 07:01:44;;;;;;;12.37;6.63;;;;;;;13.90;67.73;101898.28;6214530;23;20036;-83
2022/06/04 07:04:09;;;;;;;13.55;6.72;;;;;;;13.89;67.39;101899.19;6214347;23;20374;-82
2022/06/04 07:06:41;;;;;;;15.23;6.90;;;;;;;13.92;67.72;101898.28;6214579;23;20008;-82
2022/06/04 07:09:16;;;;;;;11.15;5.95;;;;;;;14.07;68.00;101898.97;6214711;23;20035;-83
2022/06/04 07:11:42;;;;;;;9.20;4.60;;;;;;;14.20;67.26;101901.41;6213288;23;20055;-84
2022/06/04 07:14:08;;;;;;;6.90;4.70;;;;;;;14.36;66.93;101893.34;6214967;23;20008;-84
2022/06/04 07:16:34;;;;;;;12.18;6.82;;;;;;;14.44;65.85;101895.84;6214130;23;20009;-85
2022/06/04 07:19:00;;;;;;;12.47;6.90;;;;;;;14.37;65.90;101900.28;6214735;23;20005;-84
2022/06/04 07:21:26;;;;;;;13.70;7.10;;;;;;;14.24;66.08;101901.38;6214574;23;20483;-84
2022/06/04 07:23:52;;;;;;;16.17;7.97;;;;;;;14.20;66.47;101904.00;6213148;23;20016;-84
2022/06/04 07:26:17;;;;;;;11.07;5.87;;;;;;;14.32;67.42;101899.50;6215012;23;20012;-82
2022/06/04 07:28:46;;;;;;;11.60;6.30;;;;;;;14.38;65.84;101902.00;6214792;23;20333;-82
2022/06/04 07:31:12;;;;;;;11.65;7.00;;;;;;;14.27;66.05;101912.63;6213902;23;20004;-81
2022/06/04 07:33:40;;;;;;;13.40;6.90;;;;;;;14.33;66.05;101909.06;6214255;23;20381;-76
2022/06/04 07:36:06;;;;;;;16.75;7.50;;;;;;;14.34;66.21;101916.03;6214539;23;20418;-82
2022/06/04 07:38:32;;;;;;;10.77;5.80;;;;;;;14.43;66.65;101909.78;6213696;23;20008;-82
2022/06/04 07:40:57;;;;;;;8.43;5.35;;;;;;;14.61;66.13;101922.59;6214660;23;20011;-81
2022/06/04 07:43:23;;;;;;;10.33;5.80;;;;;;;14.70;65.36;101915.53;6214338;23;20075;-81
2022/06/04 07:45:48;;;;;;;11.97;6.50;;;;;;;14.76;65.02;101923.25;6213176;23;20001;-82
2022/06/04 07:48:14;;;;;;;12.93;6.60;;;;;;;14.80;64.72;101923.22;6214934;23;20000;-82
2022/06/04 07:50:39;;;;;;;9.17;5.23;;;;;;;14.86;65.31;101918.75;6216652;23;20334;-81
2022/06/04 07:53:06;;;;;;;12.50;6.50;;;;;;;14.89;65.06;101922.19;6215106;23;20319;-81
2022/06/04 07:55:31;;;;;;;13.80;7.30;;;;;;;14.88;64.69;101914.38;6215879;23;20388;-81
2022/06/04 07:57:57;;;;;;;15.60;7.57;;;;;;;14.86;64.59;101916.16;6216330;23;20083;-81
2022/06/04 08:00:24;;;;;;;11.93;6.67;;;;;;;14.86;64.76;101918.75;6216101;23;20338;-81
2022/06/04 08:02:50;;;;;;;11.43;6.53;;;;;;;14.95;64.77;101927.31;6216565;23;19996;-81
2022/06/04 08:05:16;;;;;;;13.27;7.07;;;;;;;14.88;64.24;101923.06;6216808;23;20011;-82
2022/06/04 08:07:41;;;;;;;10.47;6.17;;;;;;;14.93;64.35;101925.59;6215076;23;20036;-81
2022/06/04 08:10:08;;;;;;;7.73;4.90;;;;;;;15.08;64.67;101925.34;6216671;23;20005;-82
2022/06/04 08:12:54;;;;;;;12.23;6.35;;;;;;;15.11;64.23;101922.69;6216585;23;20074;-80
2022/06/04 08:15:19;;;;;;;11.23;5.90;;;;;;;15.24;64.39;101925.09;6215980;23;20004;-81
2022/06/04 08:17:47;;;;;;;7.70;4.57;;;;;;;15.38;64.16;101927.47;6216397;23;20009;-81
2022/06/04 08:20:13;;;;;;;9.75;5.55;;;;;;;15.48;63.91;101917.72;6215619;23;20009;-81
2022/06/04 08:22:39;;;;;;;8.25;4.78;;;;;;;15.54;63.74;101917.59;6216052;23;20374;-81
2022/06/04 08:25:05;;;;;;;11.07;5.70;;;;;;;15.58;63.11;101914.03;6216482;23;20024;-82
2022/06/04 08:27:31;;;;;;;10.45;5.50;;;;;;;15.60;62.72;101917.44;6215277;23;20007;-82
2022/06/04 08:29:56;;;;;;;11.77;6.50;;;;;;;15.60;62.65;101904.38;6215432;23;20009;-82
2022/06/04 08:32:21;;;;;;;8.07;5.37;;;;;;;15.65;63.16;101905.16;6216135;23;20001;-82
2022/06/04 08:34:46;;;;;;;14.57;7.13;;;;;;;15.60;62.26;101907.84;6215077;23;20011;-81
2022/06/04 08:37:12;;;;;;;13.33;6.70;;;;;;;15.61;62.70;101898.25;6216142;23;20008;-81
2022/06/04 08:39:37;;;;;;;10.17;5.47;;;;;;;15.72;62.71;101901.50;6214463;23;19997;-86
2022/06/04 08:42:22;;;;;;;14.70;6.60;;;;;;;15.83;62.43;101895.19;6214088;23;20083;-84
2022/06/04 08:44:51;;;;;;;11.38;6.03;;;;;;;15.88;62.09;101891.63;6215695;23;20122;-82
2022/06/04 08:47:29;;;;;;;13.15;6.93;;;;;;;15.89;61.74;101902.97;6215826;23;20084;-82
2022/06/04 08:50:09;;;;;;;13.05;6.95;;;;;;;15.74;62.23;101896.25;6215294;23;20000;-87
2022/06/04 08:52:34;;;;;;;9.38;5.47;;;;;;;15.89;63.10;101906.44;6216324;23;20042;-87
2022/06/04 08:58:04;;;;;;;12.43;6.38;;;;;;;16.08;61.90;101921.78;6215354;23;20019;-82
2022/06/04 09:00:48;;;;;;;13.27;6.82;;;;;;;16.20;61.78;101939.84;6215955;23;20007;-83
2022/06/04 09:03:34;;;;;;;13.15;6.95;;;;;;;16.22;60.70;101945.03;6215270;23;20128;-82
2022/06/04 09:06:06;;;;;;;12.82;7.25;;;;;;;16.10;60.58;101942.69;6215469;23;20418;-82
2022/06/04 09:08:48;;;;;;;11.02;6.43;;;;;;;16.20;61.16;101938.97;6213948;23;20017;-82
2022/06/04 09:11:40;;;;;;;13.38;7.20;;;;;;;16.31;61.22;101923.03;6215365;23;20016;-83
2022/06/04 09:14:19;;;;;;;14.85;8.32;;;;;;;16.17;60.58;101918.09;6216109;23;20005;-82
2022/06/04 09:16:52;;;;;;;14.60;7.43;;;;;;;16.31;61.12;101916.03;6214662;23;20008;-82
2022/06/04 09:19:21;;;;;;;11.10;5.75;;;;;;;16.58;60.97;101934.66;6215576;23;20012;-82
2022/06/04 09:21:48;;;;;;;9.27;5.47;;;;;;;16.86;61.78;101922.66;6214696;23;19997;-83
2022/06/04 09:24:13;;;;;;;;;;;;;;;17.14;59.29;101923.69;6215170;23;20087;-82
2022/06/04 09:26:51;;;;;;;14.18;7.70;;;;;;;17.20;59.13;101921.84;6215102;23;19932;-81
2022/06/04 09:29:27;;;;;;;12.10;6.30;;;;;;;17.37;60.08;101913.50;6215534;23;20000;-81
2022/06/04 09:32:44;;;;;;;10.77;6.15;;;;;;;17.59;58.36;101908.53;6214058;23;20192;-86
2022/06/04 09:35:11;;;;;;;12.45;5.95;;;;;;;17.81;59.30;101913.16;6215791;23;20036;-83
2022/06/04 09:37:45;;;;;;;13.98;7.03;;;;;;;17.95;56.78;101918.88;6213660;23;20025;-81
2022/06/04 09:40:30;;;;;;;12.73;6.68;;;;;;;18.09;57.34;101925.53;6215396;23;20001;-81
2022/06/04 09:43:16;;;;;;;10.45;5.70;;;;;;;18.21;55.96;101925.19;6215599;23;20008;-82
2022/06/04 09:45:51;;;;;;;10.73;6.25;;;;;;;18.30;56.28;101927.53;6214671;23;20001;-81
2022/06/04 09:48:27;;;;;;;8.63;5.60;;;;;;;18.33;57.09;101921.28;6215785;23;20001;-81
2022/06/04 09:50:56;;;;;;;9.45;5.30;;;;;;;18.42;56.64;101926.25;6215348;23;20015;-81
2022/06/04 09:53:25;;;;;;;8.18;5.28;;;;;;;18.58;56.45;101925.78;6214205;23;20437;-80
2022/06/04 09:56:09;;;;;;;12.10;6.40;;;;;;;18.90;54.48;101922.13;6213298;23;20012;-83
2022/06/04 09:58:37;;;;;;;14.07;6.95;;;;;;;19.18;53.11;101928.25;6214679;23;20005;-84
2022/06/04 10:01:16;;;;;;;12.15;6.53;;;;;;;19.34;54.75;101936.47;6215319;23;20007;-82
2022/06/04 10:03:43;;;;;;;12.63;6.65;;;;;;;19.38;53.61;101933.69;6214792;23;20004;-84
2022/06/04 10:06:14;;;;;;;11.57;6.00;;;;;;;19.57;54.78;101925.13;6214609;23;20000;-84
2022/06/04 10:11:57;;;;;;;6.50;4.40;;;;;;;20.06;53.90;101936.53;6215118;23;20020;-84
2022/06/04 10:14:31;;;;;;;7.72;4.68;;;;;;;20.28;54.01;101945.38;6214022;23;20011;-85
2022/06/04 10:16:57;;;;;;;10.63;5.70;;;;;;;20.41;52.68;101943.97;6214499;23;20100;-84
2022/06/04 10:19:24;;;;;;;11.40;5.65;;;;;;;20.32;52.28;101953.09;6214556;23;20000;-84
2022/06/04 10:22:01;;;;;;;;;;;;;;;20.23;51.43;101947.34;6215151;23;20103;-84
2022/06/04 10:24:29;;;;;;;10.15;6.10;;;;;;;20.09;51.26;101950.50;6215500;23;19908;-84
2022/06/04 10:27:16;;;;;;;8.63;4.97;;;;;;;20.28;52.70;101945.38;6213584;23;20004;-84
2022/06/04 10:29:44;;;;;;;11.73;6.30;;;;;;;20.33;51.79;101943.41;6214414;23;20464;-84
2022/06/04 10:32:14;;;;;;;12.68;7.10;;;;;;;20.18;51.27;101940.44;6214902;23;20485;-84
2022/06/04 10:34:52;;;;;;;12.70;6.95;;;;;;;20.18;51.69;101932.53;6213770;23;20051;-80
2022/06/04 10:37:31;;;;;;;9.98;5.63;;;;;;;20.31;51.40;101938.22;6214697;23;20001;-85
2022/06/04 10:40:10;;;;;;;7.32;4.97;;;;;;;20.45;52.25;101942.94;6214305;23;20031;-85
2022/06/04 10:42:51;;;;;;;12.50;6.38;;;;;;;20.37;51.70;101945.88;6214180;23;20425;-85
2022/06/04 10:45:37;;;;;;;7.28;4.63;;;;;;;20.68;52.56;101942.00;6215357;23;20336;-86
2022/06/04 10:48:32;;;;;;;12.43;7.15;;;;;;;20.63;50.00;101940.47;6213726;23;20522;-77
2022/06/04 10:54:02;;;;;;;9.77;5.90;;;;;;;21.00;49.63;101939.00;6214940;23;20312;-82
2022/06/04 10:56:35;;;;;;;12.85;6.45;;;;;;;20.97;49.56;101939.13;6214387;23;20075;-82
2022/06/04 10:59:11;;;;;;;14.70;7.50;;;;;;;20.74;50.11;101945.34;6214775;23;20001;-85
2022/06/04 11:01:55;;;;;;;10.65;6.15;;;;;;;20.77;51.01;101950.53;6213839;23;20008;-86
2022/06/04 11:04:36;;;;;;;14.30;7.10;;;;;;;20.77;50.09;101942.59;6215246;23;20051;-83
2022/06/04 11:07:33;;;;;;;12.77;7.60;;;;;;;20.65;50.45;101949.19;6214499;23;20492;-85
2022/06/04 11:10:00;;;;;;;14.10;7.30;;;;;;;20.50;49.55;101946.25;6109332;23;20012;-84
2022/06/04 11:12:56;;;;;;;11.52;6.45;;;;;;;20.50;51.30;101951.50;6214321;23;20452;-84
2022/06/04 11:15:35;;;;;;;14.60;7.10;;;;;;;20.49;49.94;101947.16;6202104;23;20017;-85
2022/06/04 11:18:12;;;;;;;14.70;7.55;;;;;;;20.56;50.73;101955.69;6214922;23;20070;-84
2022/06/04 11:20:47;;;;;;;13.57;7.30;;;;;;;20.76;50.48;101946.16;6214488;23;20051;-84
2022/06/04 11:23:28;;;;;;;7.25;4.75;;;;;;;21.09;51.04;101940.41;6213580;23;20005;-85
2022/06/04 11:26:01;;;;;;;12.68;6.20;;;;;;;21.31;49.19;101947.41;6216645;23;20072;-85
2022/06/04 11:28:27;;;;;;;9.63;5.60;;;;;;;21.34;50.13;101950.75;6216007;23;20004;-85
2022/06/04 11:31:11;;;;;;;8.48;5.35;;;;;;;21.49;49.35;101951.03;6215951;23;20005;-84
2022/06/04 11:33:36;;;;;;;11.50;6.55;;;;;;;21.46;48.20;101949.34;6216941;23;20032;-84
2022/06/04 11:36:33;;;;;;;10.93;6.33;;;;;;;21.51;49.04;101946.50;6216921;23;20311;-84
2022/06/04 11:39:21;;;;;;;10.88;5.70;;;;;;;21.51;48.24;101946.50;6203069;23;20385;-85
2022/06/04 11:41:49;;;;;;;8.30;4.63;;;;;;;21.78;48.67;101939.19;6216561;23;20063;-85
2022/06/04 11:44:20;;;;;;;9.95;5.75;;;;;;;21.99;49.02;101931.22;6215356;23;20465;-85
2022/06/04 11:47:18;;;;;;;13.30;6.82;;;;;;;21.91;47.87;101934.19;6216446;23;20012;-84
2022/06/04 11:49:52;;;;;;;9.60;5.75;;;;;;;21.98;48.30;101925.03;6216516;23;20005;-85
2022/06/04 11:52:24;;;;;;;15.18;7.50;;;;;;;21.87;47.92;101922.03;6216318;23;20009;-85
2022/06/04 11:55:17;;;;;;;11.27;5.90;;;;;;;21.87;47.87;101924.69;6216345;23;20016;-85